Saint Helena, Nebraska
Current Conditions -  °F | °C
As of 1:35 AM on Monday 22 Dec 2014 (Local Time) from KYKN Reporting Station
Overcast Overcast  
Wind Chill: 34°   Ceiling: 800
Heat Index: 39°   Visibility: 7mi
Dew Point: 37°   Wind: 8mph
Humidity: 93%   Direction: 160°SSE
Pressure: 29.52"   Gusts: NA
Location:  42.81°N, 97.25°W
Report Text: KYKN 220735Z AUTO 16007KT 7SM OVC008 04/03 A2952 RMK AO1 P0003
Loading
Personal Weather Stations






























Interactive Weather Map New forecast layout! Learn more

10-Day Weather Forecast

Advertisements
Track Severe Weather on mobile